Schillplate — ZDJJ8 — position and weather

sailwx.info

Track history (hours):
 
Tides and Currents Weather Stations Pressure Air Temp Water Temp Dewpoint Dewpoint Depression Visibility Wind Speed Wind Dir Waves Ship Positions

Schillplate

Last reported at 2014-Oct-24 23:31 UTC. Time now 2014-Oct-24 23:55 UTC.
Position N 44°30' E 038°06'.

Length 86 m; draft 4.5 m.

Type: Cargo ship. MMSI: 236111603.

Date/timePositionNaut miles runAvg speedWind from/ knotsBaromVisibWave heightAir tempDewpointWater temp
2014-Oct-24 23:31N 44°30' E 038°06'0 0.0
2014-Oct-24 22:28N 44°30' E 038°06'0 0.0
2014-Oct-24 21:31N 44°30' E 038°06'0 0.0
2014-Oct-24 20:31N 44°30' E 038°06'0 0.0
2014-Oct-24 19:28N 44°30' E 038°06'0 0.0
2014-Oct-24 18:31N 44°30' E 038°06'0 0.0
2014-Oct-24 17:28N 44°30' E 038°06'0 0.0
2014-Oct-24 16:31N 44°30' E 038°06'0 0.0
2014-Oct-24 15:31N 44°30' E 038°06'0 0.0
2014-Oct-24 14:31N 44°30' E 038°06'5 5.5
2014-Oct-24 13:34N 44°26' E 038°01'2 1.6
2014-Oct-24 12:33N 44°24' E 038°01'1 1.4
2014-Oct-24 11:33N 44°26' E 038°01'2 1.8
2014-Oct-24 10:33N 44°25' E 038°03'1 0.7
2014-Oct-24 09:33N 44°24' E 038°03'1 0.9
2014-Oct-24 08:33N 44°24' E 038°01'1 0.9
2014-Oct-24 07:33N 44°24' E 038°00'3 3.5
2014-Oct-24 06:33N 44°23' E 037°56'9 4.7
2014-Oct-24 04:34N 44°24' E 037°43'1 1.3
2014-Oct-24 03:33N 44°24' E 037°45'2 1.6
2014-Oct-24 02:33N 44°24' E 037°47'2 2.0
2014-Oct-24 01:31N 44°23' E 037°50'2 1.9
2014-Oct-24 00:33N 44°23' E 037°53'2 1.7
2014-Oct-23 23:33N 44°23' E 037°55'5 1.2
2014-Oct-23 19:30N 44°21' E 038°01'7 7.7
2014-Oct-23 18:33N 44°23' E 037°52'9 9.0
2014-Oct-23 17:33N 44°28' E 037°41'7 6.9
2014-Oct-23 16:30N 44°31' E 037°31'5 2.7
2014-Oct-23 14:32N 44°32' E 037°24'1 1.1
2014-Oct-23 13:33N 44°31' E 037°25'1 1.2
2014-Oct-23 12:33N 44°30' E 037°26'1 1.3
2014-Oct-23 11:33N 44°29' E 037°27'1 1.3
2014-Oct-23 10:33N 44°28' E 037°29'1 1.5
2014-Oct-23 09:33N 44°27' E 037°30'2 1.6
2014-Oct-23 08:33N 44°26' E 037°32'2 1.8
2014-Oct-23 07:33N 44°25' E 037°34'2 1.8
2014-Oct-23 06:33N 44°24' E 037°36'2 1.8
2014-Oct-23 05:33N 44°23' E 037°38'2 1.7
2014-Oct-23 04:33N 44°22' E 037°41'2 1.6
2014-Oct-23 03:21N 44°22' E 037°43'6 1.1
2014-Oct-22 21:31N 44°17' E 037°50'3 0.4
2014-Oct-22 15:09N 44°17' E 037°46'5 8.5
2014-Oct-22 14:34N 44°21' E 037°41'3 3.4
2014-Oct-22 13:33N 44°23' E 037°37'2 2.2
2014-Oct-22 12:33N 44°21' E 037°40'2 2.2
2014-Oct-22 11:32N 44°20' E 037°42'2 1.9
2014-Oct-22 10:33N 44°19' E 037°44'2 1.8
2014-Oct-22 09:22N 44°17' E 037°46'2 0.7
2014-Oct-22 06:31N 44°16' E 037°48'7 6.9
2014-Oct-22 05:32N 44°23' E 037°46'6 6.4
2014-Oct-22 04:33N 44°29' E 037°45'1 1.1
2014-Oct-22 03:33N 44°28' E 037°45'1 1.4
2014-Oct-22 02:34N 44°26' E 037°46'2 1.6
2014-Oct-22 01:33N 44°25' E 037°46'2 1.8
2014-Oct-22 00:33N 44°23' E 037°47'2 2.0
2014-Oct-21 23:30N 44°21' E 037°47'2 2.0
2014-Oct-21 22:30N 44°19' E 037°48'5 0.7
2014-Oct-21 15:33N 44°22' E 037°43'6 6.2
2014-Oct-21 14:33N 44°28' E 037°40'1 0.6
2014-Oct-21 13:33N 44°28' E 037°40'1 1.3
2014-Oct-21 12:33N 44°27' E 037°40'2 1.5
2014-Oct-21 11:34N 44°26' E 037°41'1 1.5
2014-Oct-21 10:33N 44°24' E 037°42'1 1.1
2014-Oct-21 09:33N 44°23' E 037°42'1 1.1
2014-Oct-21 08:33N 44°22' E 037°43'1 1.0
2014-Oct-21 07:33N 44°21' E 037°44'1 1.0
2014-Oct-21 06:34N 44°20' E 037°44'1 1.0
2014-Oct-21 05:33N 44°19' E 037°45'1 1.0
2014-Oct-21 04:34N 44°19' E 037°45'17 1.2
2014-Oct-20 14:30N 44°29' E 037°27'1 0.7
2014-Oct-20 13:31N 44°29' E 037°27'1 0.7
2014-Oct-20 12:31N 44°28' E 037°28'1 0.7
2014-Oct-20 11:33N 44°27' E 037°28'1 0.6
2014-Oct-20 10:33N 44°27' E 037°29'1 0.7
2014-Oct-20 09:31N 44°27' E 037°30'1 0.5
2014-Oct-20 08:33N 44°27' E 037°31'1 0.6
2014-Oct-20 07:33N 44°27' E 037°31'1 0.8
2014-Oct-20 06:33N 44°27' E 037°32'1 0.8
2014-Oct-20 05:30N 44°27' E 037°33'1 0.8
2014-Oct-20 04:33N 44°27' E 037°34'1 0.8
2014-Oct-20 03:33N 44°27' E 037°35'1 0.7
2014-Oct-20 02:30N 44°27' E 037°36'1 0.7
2014-Oct-20 01:33N 44°27' E 037°37'1 0.7
2014-Oct-20 00:31N 44°27' E 037°38'1 0.8
2014-Oct-19 23:33N 44°27' E 037°39'1 0.8
2014-Oct-19 22:33N 44°27' E 037°41'1 0.8
2014-Oct-19 21:33N 44°27' E 037°42'1 0.9
2014-Oct-19 20:33N 44°27' E 037°43'11 1.9
2014-Oct-19 14:32N 44°17' E 037°36'1 0.9
2014-Oct-19 13:33N 44°17' E 037°36'1 1.0
2014-Oct-19 12:30N 44°18' E 037°37'1 1.0
2014-Oct-19 11:33N 44°19' E 037°38'1 1.0
2014-Oct-19 10:32N 44°20' E 037°38'1 1.0
2014-Oct-19 09:31N 44°21' E 037°39'1 1.0
2014-Oct-19 08:34N 44°22' E 037°40'1 0.8
2014-Oct-19 07:33N 44°23' E 037°40'1 0.7
2014-Oct-19 06:34N 44°23' E 037°41'2 2.4
2014-Oct-19 05:33N 44°25' E 037°39'3 2.8
2014-Oct-19 04:33N 44°24' E 037°36'5 4.5
2014-Oct-19 03:23N 44°19' E 037°34'6 7.0
2014-Oct-19 02:33N 44°24' E 037°38'7 6.8
2014-Oct-19 01:33N 44°28' E 037°45'5 4.7
2014-Oct-19 00:33N 44°25' E 037°41'5 4.6
2014-Oct-18 23:34N 44°21' E 037°37'2 0.3
2014-Oct-18 15:18N 44°24' E 037°37'2 2.4
2014-Oct-18 14:32N 44°25' E 037°39'2 1.9
2014-Oct-18 13:33N 44°26' E 037°42'2 1.9
2014-Oct-18 12:33N 44°26' E 037°44'1 1.4
2014-Oct-18 11:33N 44°26' E 037°46'2 1.9
2014-Oct-18 10:33N 44°24' E 037°48'2 2.3
2014-Oct-18 09:33N 44°22' E 037°49'2 2.4
2014-Oct-18 08:33N 44°20' E 037°51'2 2.4
2014-Oct-18 07:33N 44°18' E 037°52'1 0.8
2014-Oct-18 06:32N 44°18' E 037°53'9 9.2
2014-Oct-18 05:33N 44°26' E 037°50'1 1.1
2014-Oct-18 04:33N 44°25' E 037°50'1 1.3
2014-Oct-18 03:32N 44°24' E 037°51'1 1.0
2014-Oct-18 02:26N 44°23' E 037°52'1 0.7
2014-Oct-18 01:33N 44°22' E 037°52'1 0.6
2014-Oct-18 00:26N 44°22' E 037°52'1 0.6
2014-Oct-17 23:33N 44°21' E 037°52'1 0.7
2014-Oct-17 22:32N 44°21' E 037°53'9 1.2
2014-Oct-17 14:24N 44°14' E 037°44'0 0.5
2014-Oct-17 13:32N 44°14' E 037°44'1 0.5
2014-Oct-17 12:32N 44°15' E 037°44'1 0.6
2014-Oct-17 10:33N 44°16' E 037°45'1 0.5
2014-Oct-17 09:28N 44°17' E 037°45'0 0.1
2014-Oct-17 08:29N 44°17' E 037°46'1 0.8
2014-Oct-17 07:31N 44°16' E 037°46'4 4.2
2014-Oct-17 06:33N 44°20' E 037°45'1010.4
2014-Oct-17 05:34N 44°30' E 037°44'1 1.3
2014-Oct-17 04:34N 44°32' E 037°44'2 1.9
2014-Oct-17 03:33N 44°30' E 037°44'2 1.7
2014-Oct-17 02:33N 44°28' E 037°45'2 1.7
2014-Oct-17 01:33N 44°27' E 037°45'1 1.4
2014-Oct-17 00:33N 44°25' E 037°46'1 1.2
2014-Oct-16 23:26N 44°24' E 037°46'1 1.2
2014-Oct-16 22:16N 44°22' E 037°46'1 1.4
2014-Oct-16 21:28N 44°21' E 037°46'8 1.1
2014-Oct-16 14:23N 44°14' E 037°50'8 9.2
2014-Oct-16 13:32N 44°20' E 037°43'9 9.0
2014-Oct-16 12:32N 44°27' E 037°35'2 1.8
2014-Oct-16 11:33N 44°28' E 037°33'1 1.3
2014-Oct-16 10:34N 44°27' E 037°34'1 1.2
2014-Oct-16 09:33N 44°26' E 037°34'1 0.9
2014-Oct-16 08:33N 44°25' E 037°35'1 0.6
2014-Oct-16 07:28N 44°24' E 037°35'0 0.5
2014-Oct-16 06:32N 44°24' E 037°35'0 0.3
2014-Oct-16 05:21N 44°24' E 037°35'0 0.2
2014-Oct-16 04:33N 44°23' E 037°35'0 0.2
2014-Oct-16 02:17N 44°23' E 037°35'0 0.3
2014-Oct-16 01:08N 44°23' E 037°34'2 0.4
2014-Oct-15 20:17N 44°21' E 037°35'5 0.8
2014-Oct-15 14:30N 44°20' E 037°42'1 0.9
2014-Oct-15 13:33N 44°20' E 037°43'1 0.8
2014-Oct-15 12:34N 44°20' E 037°44'1 0.6
2014-Oct-15 11:32N 44°21' E 037°44'0 0.4
2014-Oct-15 10:33N 44°21' E 037°45'1 0.8
2014-Oct-15 09:29N 44°21' E 037°45'7 7.5
2014-Oct-15 08:33N 44°28' E 037°43'5 5.1
2014-Oct-15 07:33N 44°33' E 037°43'1 1.4
2014-Oct-15 06:33N 44°32' E 037°44'2 1.5
2014-Oct-15 05:33N 44°31' E 037°45'2 1.6
2014-Oct-15 04:33N 44°30' E 037°47'2 1.6
2014-Oct-15 03:33N 44°29' E 037°49'2 1.7
2014-Oct-15 02:34N 44°30' E 037°47'7 6.6
2014-Oct-15 01:33N 44°31' E 037°38'2 1.6
2014-Oct-15 00:33N 44°30' E 037°39'1 1.5
2014-Oct-14 23:32N 44°29' E 037°41'  
Track history (hours):
 
Tides and Currents Weather Stations Pressure Air Temp Water Temp Dewpoint Dewpoint Depression Visibility Wind Speed Wind Dir Waves Ship Positions

Schillplate

Last reported at 2014-Oct-24 23:31 UTC. Time now 2014-Oct-24 23:55 UTC.
Position N 44°30' E 038°06'.

Length 86 m; draft 4.5 m.

Type: Cargo ship. MMSI: 236111603.

Date/timePositionNaut miles runAvg speedWind from/ knotsBaromVisibWave heightAir tempDewpointWater temp
2014-Oct-24 23:31N 44°30' E 038°06'0 0.0
2014-Oct-24 22:28N 44°30' E 038°06'0 0.0
2014-Oct-24 21:31N 44°30' E 038°06'0 0.0
2014-Oct-24 20:31N 44°30' E 038°06'0 0.0
2014-Oct-24 19:28N 44°30' E 038°06'0 0.0
2014-Oct-24 18:31N 44°30' E 038°06'0 0.0
2014-Oct-24 17:28N 44°30' E 038°06'0 0.0
2014-Oct-24 16:31N 44°30' E 038°06'0 0.0
2014-Oct-24 15:31N 44°30' E 038°06'0 0.0
2014-Oct-24 14:31N 44°30' E 038°06'5 5.5
2014-Oct-24 13:34N 44°26' E 038°01'2 1.6
2014-Oct-24 12:33N 44°24' E 038°01'1 1.4
2014-Oct-24 11:33N 44°26' E 038°01'2 1.8
2014-Oct-24 10:33N 44°25' E 038°03'1 0.7
2014-Oct-24 09:33N 44°24' E 038°03'1 0.9
2014-Oct-24 08:33N 44°24' E 038°01'1 0.9
2014-Oct-24 07:33N 44°24' E 038°00'3 3.5
2014-Oct-24 06:33N 44°23' E 037°56'9 4.7
2014-Oct-24 04:34N 44°24' E 037°43'1 1.3
2014-Oct-24 03:33N 44°24' E 037°45'2 1.6
2014-Oct-24 02:33N 44°24' E 037°47'2 2.0
2014-Oct-24 01:31N 44°23' E 037°50'2 1.9
2014-Oct-24 00:33N 44°23' E 037°53'2 1.7
2014-Oct-23 23:33N 44°23' E 037°55'5 1.2
2014-Oct-23 19:30N 44°21' E 038°01'7 7.7
2014-Oct-23 18:33N 44°23' E 037°52'9 9.0
2014-Oct-23 17:33N 44°28' E 037°41'7 6.9
2014-Oct-23 16:30N 44°31' E 037°31'5 2.7
2014-Oct-23 14:32N 44°32' E 037°24'1 1.1
2014-Oct-23 13:33N 44°31' E 037°25'1 1.2
2014-Oct-23 12:33N 44°30' E 037°26'1 1.3
2014-Oct-23 11:33N 44°29' E 037°27'1 1.3
2014-Oct-23 10:33N 44°28' E 037°29'1 1.5
2014-Oct-23 09:33N 44°27' E 037°30'2 1.6
2014-Oct-23 08:33N 44°26' E 037°32'2 1.8
2014-Oct-23 07:33N 44°25' E 037°34'2 1.8
2014-Oct-23 06:33N 44°24' E 037°36'2 1.8
2014-Oct-23 05:33N 44°23' E 037°38'2 1.7
2014-Oct-23 04:33N 44°22' E 037°41'2 1.6
2014-Oct-23 03:21N 44°22' E 037°43'6 1.1
2014-Oct-22 21:31N 44°17' E 037°50'3 0.4
2014-Oct-22 15:09N 44°17' E 037°46'5 8.5
2014-Oct-22 14:34N 44°21' E 037°41'3 3.4
2014-Oct-22 13:33N 44°23' E 037°37'2 2.2
2014-Oct-22 12:33N 44°21' E 037°40'2 2.2
2014-Oct-22 11:32N 44°20' E 037°42'2 1.9
2014-Oct-22 10:33N 44°19' E 037°44'2 1.8
2014-Oct-22 09:22N 44°17' E 037°46'2 0.7
2014-Oct-22 06:31N 44°16' E 037°48'7 6.9
2014-Oct-22 05:32N 44°23' E 037°46'6 6.4
2014-Oct-22 04:33N 44°29' E 037°45'1 1.1
2014-Oct-22 03:33N 44°28' E 037°45'1 1.4
2014-Oct-22 02:34N 44°26' E 037°46'2 1.6
2014-Oct-22 01:33N 44°25' E 037°46'2 1.8
2014-Oct-22 00:33N 44°23' E 037°47'2 2.0
2014-Oct-21 23:30N 44°21' E 037°47'2 2.0
2014-Oct-21 22:30N 44°19' E 037°48'5 0.7
2014-Oct-21 15:33N 44°22' E 037°43'6 6.2
2014-Oct-21 14:33N 44°28' E 037°40'1 0.6
2014-Oct-21 13:33N 44°28' E 037°40'1 1.3
2014-Oct-21 12:33N 44°27' E 037°40'2 1.5
2014-Oct-21 11:34N 44°26' E 037°41'1 1.5
2014-Oct-21 10:33N 44°24' E 037°42'1 1.1
2014-Oct-21 09:33N 44°23' E 037°42'1 1.1
2014-Oct-21 08:33N 44°22' E 037°43'1 1.0
2014-Oct-21 07:33N 44°21' E 037°44'1 1.0
2014-Oct-21 06:34N 44°20' E 037°44'1 1.0
2014-Oct-21 05:33N 44°19' E 037°45'1 1.0
2014-Oct-21 04:34N 44°19' E 037°45'17 1.2
2014-Oct-20 14:30N 44°29' E 037°27'1 0.7
2014-Oct-20 13:31N 44°29' E 037°27'1 0.7
2014-Oct-20 12:31N 44°28' E 037°28'1 0.7
2014-Oct-20 11:33N 44°27' E 037°28'1 0.6
2014-Oct-20 10:33N 44°27' E 037°29'1 0.7
2014-Oct-20 09:31N 44°27' E 037°30'1 0.5
2014-Oct-20 08:33N 44°27' E 037°31'1 0.6
2014-Oct-20 07:33N 44°27' E 037°31'1 0.8
2014-Oct-20 06:33N 44°27' E 037°32'1 0.8
2014-Oct-20 05:30N 44°27' E 037°33'1 0.8
2014-Oct-20 04:33N 44°27' E 037°34'1 0.8
2014-Oct-20 03:33N 44°27' E 037°35'1 0.7
2014-Oct-20 02:30N 44°27' E 037°36'1 0.7
2014-Oct-20 01:33N 44°27' E 037°37'1 0.7
2014-Oct-20 00:31N 44°27' E 037°38'1 0.8
2014-Oct-19 23:33N 44°27' E 037°39'1 0.8
2014-Oct-19 22:33N 44°27' E 037°41'1 0.8
2014-Oct-19 21:33N 44°27' E 037°42'1 0.9
2014-Oct-19 20:33N 44°27' E 037°43'11 1.9
2014-Oct-19 14:32N 44°17' E 037°36'1 0.9
2014-Oct-19 13:33N 44°17' E 037°36'1 1.0
2014-Oct-19 12:30N 44°18' E 037°37'1 1.0
2014-Oct-19 11:33N 44°19' E 037°38'1 1.0
2014-Oct-19 10:32N 44°20' E 037°38'1 1.0
2014-Oct-19 09:31N 44°21' E 037°39'1 1.0
2014-Oct-19 08:34N 44°22' E 037°40'1 0.8
2014-Oct-19 07:33N 44°23' E 037°40'1 0.7
2014-Oct-19 06:34N 44°23' E 037°41'2 2.4
2014-Oct-19 05:33N 44°25' E 037°39'3 2.8
2014-Oct-19 04:33N 44°24' E 037°36'5 4.5
2014-Oct-19 03:23N 44°19' E 037°34'6 7.0
2014-Oct-19 02:33N 44°24' E 037°38'7 6.8
2014-Oct-19 01:33N 44°28' E 037°45'5 4.7
2014-Oct-19 00:33N 44°25' E 037°41'5 4.6
2014-Oct-18 23:34N 44°21' E 037°37'2 0.3
2014-Oct-18 15:18N 44°24' E 037°37'2 2.4
2014-Oct-18 14:32N 44°25' E 037°39'2 1.9
2014-Oct-18 13:33N 44°26' E 037°42'2 1.9
2014-Oct-18 12:33N 44°26' E 037°44'1 1.4
2014-Oct-18 11:33N 44°26' E 037°46'2 1.9
2014-Oct-18 10:33N 44°24' E 037°48'2 2.3
2014-Oct-18 09:33N 44°22' E 037°49'2 2.4
2014-Oct-18 08:33N 44°20' E 037°51'2 2.4
2014-Oct-18 07:33N 44°18' E 037°52'1 0.8
2014-Oct-18 06:32N 44°18' E 037°53'9 9.2
2014-Oct-18 05:33N 44°26' E 037°50'1 1.1
2014-Oct-18 04:33N 44°25' E 037°50'1 1.3
2014-Oct-18 03:32N 44°24' E 037°51'1 1.0
2014-Oct-18 02:26N 44°23' E 037°52'1 0.7
2014-Oct-18 01:33N 44°22' E 037°52'1 0.6
2014-Oct-18 00:26N 44°22' E 037°52'1 0.6
2014-Oct-17 23:33N 44°21' E 037°52'1 0.7
2014-Oct-17 22:32N 44°21' E 037°53'9 1.2
2014-Oct-17 14:24N 44°14' E 037°44'0 0.5
2014-Oct-17 13:32N 44°14' E 037°44'1 0.5
2014-Oct-17 12:32N 44°15' E 037°44'1 0.6
2014-Oct-17 10:33N 44°16' E 037°45'1 0.5
2014-Oct-17 09:28N 44°17' E 037°45'0 0.1
2014-Oct-17 08:29N 44°17' E 037°46'1 0.8
2014-Oct-17 07:31N 44°16' E 037°46'4 4.2
2014-Oct-17 06:33N 44°20' E 037°45'1010.4
2014-Oct-17 05:34N 44°30' E 037°44'1 1.3
2014-Oct-17 04:34N 44°32' E 037°44'2 1.9
2014-Oct-17 03:33N 44°30' E 037°44'2 1.7
2014-Oct-17 02:33N 44°28' E 037°45'2 1.7
2014-Oct-17 01:33N 44°27' E 037°45'1 1.4
2014-Oct-17 00:33N 44°25' E 037°46'1 1.2
2014-Oct-16 23:26N 44°24' E 037°46'1 1.2
2014-Oct-16 22:16N 44°22' E 037°46'1 1.4
2014-Oct-16 21:28N 44°21' E 037°46'8 1.1
2014-Oct-16 14:23N 44°14' E 037°50'8 9.2
2014-Oct-16 13:32N 44°20' E 037°43'9 9.0
2014-Oct-16 12:32N 44°27' E 037°35'2 1.8
2014-Oct-16 11:33N 44°28' E 037°33'1 1.3
2014-Oct-16 10:34N 44°27' E 037°34'1 1.2
2014-Oct-16 09:33N 44°26' E 037°34'1 0.9
2014-Oct-16 08:33N 44°25' E 037°35'1 0.6
2014-Oct-16 07:28N 44°24' E 037°35'0 0.5
2014-Oct-16 06:32N 44°24' E 037°35'0 0.3
2014-Oct-16 05:21N 44°24' E 037°35'0 0.2
2014-Oct-16 04:33N 44°23' E 037°35'0 0.2
2014-Oct-16 02:17N 44°23' E 037°35'0 0.3
2014-Oct-16 01:08N 44°23' E 037°34'2 0.4
2014-Oct-15 20:17N 44°21' E 037°35'5 0.8
2014-Oct-15 14:30N 44°20' E 037°42'1 0.9
2014-Oct-15 13:33N 44°20' E 037°43'1 0.8
2014-Oct-15 12:34N 44°20' E 037°44'1 0.6
2014-Oct-15 11:32N 44°21' E 037°44'0 0.4
2014-Oct-15 10:33N 44°21' E 037°45'1 0.8
2014-Oct-15 09:29N 44°21' E 037°45'7 7.5
2014-Oct-15 08:33N 44°28' E 037°43'5 5.1
2014-Oct-15 07:33N 44°33' E 037°43'1 1.4
2014-Oct-15 06:33N 44°32' E 037°44'2 1.5
2014-Oct-15 05:33N 44°31' E 037°45'2 1.6
2014-Oct-15 04:33N 44°30' E 037°47'2 1.6
2014-Oct-15 03:33N 44°29' E 037°49'2 1.7
2014-Oct-15 02:34N 44°30' E 037°47'7 6.6
2014-Oct-15 01:33N 44°31' E 037°38'2 1.6
2014-Oct-15 00:33N 44°30' E 037°39'1 1.5
2014-Oct-14 23:32N 44°29' E 037°41'  

Dump ship's entire track history